Time;durP1;ratioP1;P1;durP2;ratioP2;P2;SDS_P1;SDS_P2;PMS_P1;PMS_P2;Temp;Humidity;BMP_temperature;BMP_pressure;BME280_temperature;BME280_humidity;BME280_pressure;Samples;Min_cycle;Max_cycle;Signal;HPM_P1;HPM_P2
2022/02/06 00:02:20;;;;;;;4.07;2.15;;;1.40;99.90;;;;;;5092919;28;20285;-72
2022/02/06 00:04:48;;;;;;;3.38;2.30;;;1.50;99.90;;;;;;5076028;28;20205;-73
2022/02/06 00:07:15;;;;;;;6.65;2.47;;;1.50;99.90;;;;;;5073628;28;20705;-73
2022/02/06 00:09:43;;;;;;;6.95;2.45;;;1.50;99.90;;;;;;5073730;28;20204;-74
2022/02/06 00:12:10;;;;;;;3.15;2.05;;;1.60;99.90;;;;;;5073019;28;20223;-74
2022/02/06 00:14:37;;;;;;;3.08;1.88;;;1.60;99.90;;;;;;5073251;28;20622;-74
2022/02/06 00:17:04;;;;;;;3.17;2.17;;;1.70;99.90;;;;;;5073598;28;20220;-74
2022/02/06 00:19:33;;;;;;;5.75;2.38;;;1.70;99.90;;;;;;5073310;28;20687;-75
2022/02/06 00:22:02;;;;;;;3.65;1.42;;;1.80;99.90;;;;;;5073789;28;20207;-74
2022/02/06 00:24:37;;;;;;;4.13;2.42;;;1.80;99.90;;;;;;5072963;28;20211;-74
2022/02/06 00:27:08;;;;;;;4.60;2.20;;;1.90;99.90;;;;;;5073841;28;20227;-74
2022/02/06 00:29:45;;;;;;;5.03;2.20;;;1.90;99.90;;;;;;5073268;28;20200;-74
2022/02/06 00:32:24;;;;;;;4.90;2.28;;;1.90;99.90;;;;;;5073747;28;20273;-74
2022/02/06 00:40:18;;;;;;;4.60;1.80;;;2.00;99.90;;;;;;5073705;28;20202;-73
2022/02/06 00:42:45;;;;;;;2.63;1.67;;;2.00;99.90;;;;;;5072673;28;20577;-74
2022/02/06 00:45:12;;;;;;;3.92;2.20;;;2.10;99.90;;;;;;5077366;28;20224;-74
2022/02/06 00:47:40;;;;;;;2.15;1.33;;;2.10;99.90;;;;;;5073590;28;20688;-74
2022/02/06 00:50:09;;;;;;;8.15;2.10;;;2.10;99.90;;;;;;5073610;28;20209;-74
2022/02/06 00:52:49;;;;;;;5.65;2.10;;;2.20;99.90;;;;;;5072496;28;20212;-74
2022/02/06 00:55:15;;;;;;;7.43;1.95;;;2.20;99.90;;;;;;5073444;28;20263;-74
2022/02/06 00:57:42;;;;;;;2.15;1.80;;;2.20;99.90;;;;;;5072546;28;20204;-74
2022/02/06 01:00:10;;;;;;;2.95;1.90;;;2.20;99.90;;;;;;5072736;28;20204;-73
2022/02/06 01:02:36;;;;;;;4.85;1.92;;;2.20;99.90;;;;;;5072113;28;20203;-73
2022/02/06 01:05:03;;;;;;;5.80;2.40;;;2.20;99.90;;;;;;5072678;28;20224;-74
2022/02/06 01:07:31;;;;;;;2.72;2.00;;;2.20;99.90;;;;;;5072165;28;20679;-73
2022/02/06 01:09:58;;;;;;;2.78;1.75;;;2.20;99.90;;;;;;5072672;28;20208;-74
2022/02/06 01:12:29;;;;;;;2.70;1.60;;;2.20;99.90;;;;;;5071931;28;20216;-74
2022/02/06 01:15:05;;;;;;;4.30;1.92;;;2.20;99.90;;;;;;5072409;28;20205;-74
2022/02/06 01:17:36;;;;;;;4.53;2.40;;;2.20;99.90;;;;;;5072709;28;21056;-74
2022/02/06 01:20:08;;;;;;;2.80;1.80;;;2.20;99.90;;;;;;5072959;28;20200;-74
2022/02/06 01:22:38;;;;;;;5.22;2.05;;;2.20;99.90;;;;;;5071665;28;20204;-73
2022/02/06 01:25:13;;;;;;;2.08;1.70;;;2.20;99.90;;;;;;5072217;28;20220;-74
2022/02/06 01:27:45;;;;;;;2.92;1.80;;;2.20;99.90;;;;;;5071910;28;20584;-73
2022/02/06 01:30:17;;;;;;;2.85;2.03;;;2.30;99.90;;;;;;5071907;28;20287;-74
2022/02/06 01:32:51;;;;;;;4.72;1.65;;;2.30;99.90;;;;;;5071082;28;20705;-74
2022/02/06 01:35:26;;;;;;;2.90;1.88;;;2.20;99.90;;;;;;5071299;28;20260;-73
2022/02/06 01:38:04;;;;;;;6.78;2.47;;;2.30;99.90;;;;;;5071577;28;20196;-74
2022/02/06 01:40:39;;;;;;;3.45;2.20;;;2.30;99.90;;;;;;5071517;28;20276;-74
2022/02/06 01:43:10;;;;;;;4.80;2.22;;;2.30;99.90;;;;;;5071028;28;20214;-72
2022/02/06 01:46:04;;;;;;;4.05;1.80;;;2.30;99.90;;;;;;5071394;28;20227;-74
2022/02/06 02:05:30;;;;;;;3.70;2.58;;;2.30;99.90;;;;;;5068031;28;20208;-74
2022/02/06 02:08:14;;;;;;;2.45;1.63;;;2.30;99.90;;;;;;5070893;28;20283;-74
2022/02/06 02:11:02;;;;;;;4.90;2.63;;;2.30;99.90;;;;;;5070726;28;20231;-74
2022/02/06 02:13:46;;;;;;;2.03;1.65;;;2.40;99.90;;;;;;5070064;28;20224;-74
2022/02/06 02:19:29;;;;;;;2.90;2.03;;;2.30;99.90;;;;;;5069884;28;20207;-74
2022/02/06 02:22:28;;;;;;;5.57;1.60;;;2.30;99.90;;;;;;5070707;28;20254;-74
2022/02/06 02:28:02;;;;;;;3.50;1.73;;;2.30;99.90;;;;;;5013443;28;20225;-74
2022/02/06 02:42:54;;;;;;;3.20;1.73;;;2.30;99.90;;;;;;5007960;28;20233;-73
2022/02/06 02:45:00;;;;;;;3.83;2.70;;;2.30;99.90;;;;;;5070113;28;20203;-73
2022/02/06 02:47:27;;;;;;;4.80;2.03;;;2.30;99.90;;;;;;5070459;28;20200;-74
2022/02/06 02:49:56;;;;;;;5.63;2.05;;;2.30;99.90;;;;;;5070396;28;20204;-73
2022/02/06 02:55:20;;;;;;;2.35;1.60;;;2.50;99.90;;;;;;5068196;28;20220;-72
2022/02/06 02:57:51;;;;;;;2.00;1.55;;;2.50;99.90;;;;;;5070379;28;20215;-74
2022/02/06 03:00:30;;;;;;;2.95;1.70;;;2.50;99.90;;;;;;5070463;28;20249;-74
2022/02/06 03:03:07;;;;;;;2.85;1.88;;;2.50;99.90;;;;;;5069862;28;20206;-74
2022/02/06 03:05:34;;;;;;;3.92;1.65;;;2.50;99.90;;;;;;5070170;28;20220;-74
2022/02/06 03:08:04;;;;;;;6.97;1.98;;;2.60;99.90;;;;;;5070332;28;20196;-75
2022/02/06 03:10:33;;;;;;;6.18;2.08;;;2.60;99.90;;;;;;5070525;28;20211;-73
2022/02/06 03:13:01;;;;;;;4.38;2.50;;;2.60;99.90;;;;;;5069808;28;20252;-74
2022/02/06 03:15:38;;;;;;;5.55;2.33;;;2.60;99.90;;;;;;5070353;28;20310;-74
2022/02/06 03:18:07;;;;;;;6.18;1.50;;;2.60;99.90;;;;;;5070273;28;20624;-74
2022/02/06 03:20:35;;;;;;;6.57;1.98;;;2.50;99.90;;;;;;5070114;28;20200;-74
2022/02/06 03:23:04;;;;;;;5.45;1.98;;;2.60;99.90;;;;;;5071044;28;20204;-74
2022/02/06 03:25:34;;;;;;;3.00;1.85;;;2.70;99.90;;;;;;5073981;28;20242;-73
2022/02/06 03:28:02;;;;;;;2.60;1.60;;;2.70;99.90;;;;;;5074700;28;20196;-74
2022/02/06 03:30:30;;;;;;;2.97;2.15;;;2.70;99.90;;;;;;5074453;28;20205;-74
2022/02/06 03:32:57;;;;;;;3.80;1.67;;;2.60;99.90;;;;;;5073545;28;20252;-75
2022/02/06 03:35:25;;;;;;;5.18;1.98;;;2.60;99.90;;;;;;5073645;28;20278;-74
2022/02/06 03:37:52;;;;;;;5.35;1.95;;;2.60;99.90;;;;;;5073982;28;20204;-73
2022/02/06 03:40:23;;;;;;;3.45;1.58;;;2.60;99.90;;;;;;5073897;28;20208;-74
2022/02/06 03:43:04;;;;;;;1.80;1.23;;;2.60;99.90;;;;;;5073275;28;20593;-74
2022/02/06 03:45:41;;;;;;;2.65;1.58;;;2.60;99.90;;;;;;5073748;28;20310;-73
2022/02/06 03:48:18;;;;;;;3.15;1.92;;;2.70;99.90;;;;;;5073737;28;20238;-73
2022/02/06 03:50:49;;;;;;;2.47;1.50;;;2.70;99.90;;;;;;5073778;28;20737;-72
2022/02/06 03:53:18;;;;;;;5.50;1.90;;;2.70;99.90;;;;;;5073128;28;20217;-73
2022/02/06 03:55:46;;;;;;;5.10;1.80;;;2.70;99.90;;;;;;5073660;28;20228;-71
2022/02/06 03:58:14;;;;;;;5.97;1.58;;;2.80;99.90;;;;;;5073514;28;20250;-72
2022/02/06 04:00:41;;;;;;;3.63;1.50;;;2.70;99.90;;;;;;5073384;28;20664;-73
2022/02/06 04:03:07;;;;;;;4.07;1.92;;;2.80;99.90;;;;;;5072728;28;20204;-73
2022/02/06 04:05:34;;;;;;;3.05;1.65;;;2.80;99.90;;;;;;5073201;28;20729;-72
2022/02/06 04:08:02;;;;;;;3.17;1.48;;;2.80;99.90;;;;;;5073777;28;20196;-73
2022/02/06 04:10:35;;;;;;;4.68;1.65;;;2.80;99.90;;;;;;5073906;28;20239;-72
2022/02/06 04:13:04;;;;;;;2.50;1.50;;;2.80;99.90;;;;;;5073361;28;20577;-72
2022/02/06 04:15:39;;;;;;;2.53;1.50;;;2.80;99.90;;;;;;5073082;28;20597;-72
2022/02/06 04:18:13;;;;;;;5.22;1.70;;;2.80;99.90;;;;;;5073362;28;20215;-72
2022/02/06 04:20:40;;;;;;;5.25;1.73;;;2.80;99.90;;;;;;5073197;28;20211;-72
2022/02/06 04:23:07;;;;;;;4.20;1.40;;;2.90;99.90;;;;;;5072874;28;20207;-72
2022/02/06 04:25:34;;;;;;;6.82;1.83;;;2.90;99.90;;;;;;5073041;28;20216;-73
2022/02/06 04:28:01;;;;;;;2.67;1.90;;;3.00;99.90;;;;;;5073284;28;20684;-73
2022/02/06 04:30:28;;;;;;;2.58;1.60;;;3.10;99.90;;;;;;5073235;28;20206;-73
2022/02/06 04:32:56;;;;;;;2.20;1.50;;;3.10;99.90;;;;;;5072355;28;20196;-74
2022/02/06 04:38:05;;;;;;;9.35;2.20;;;3.10;99.90;;;;;;5073825;28;20220;-74
2022/02/06 04:40:47;;;;;;;3.78;1.58;;;3.20;99.90;;;;;;5089818;28;20713;-74
2022/02/06 04:43:37;;;;;;;2.10;1.40;;;3.20;99.90;;;;;;5086815;28;20212;-74
2022/02/06 04:49:22;;;;;;;1.83;1.45;;;3.20;99.90;;;;;;5089838;28;20227;-73
2022/02/06 04:52:44;;;;;;;5.18;1.60;;;3.20;99.90;;;;;;5090305;28;20209;-74
2022/02/06 04:55:30;;;;;;;1.98;1.42;;;3.20;99.90;;;;;;5089080;28;20232;-74
2022/02/06 05:13:09;;;;;;;2.05;1.30;;;3.30;99.90;;;;;;5000796;28;20690;-74
2022/02/06 05:15:37;;;;;;;4.97;1.85;;;3.30;99.90;;;;;;5010568;28;20629;-74
2022/02/06 05:18:30;;;;;;;4.32;1.67;;;3.30;99.90;;;;;;5063708;28;20208;-74
2022/02/06 05:24:31;;;;;;;3.03;1.65;;;3.30;99.90;;;;;;5024098;28;20189;-74
2022/02/06 05:27:11;;;;;;;7.80;1.70;;;3.30;99.90;;;;;;5072334;28;20634;-74
2022/02/06 05:29:46;;;;;;;5.53;1.92;;;3.40;99.90;;;;;;5072045;28;20204;-74
2022/02/06 05:32:20;;;;;;;4.07;2.05;;;3.40;99.90;;;;;;5071816;28;20196;-73
2022/02/06 05:34:50;;;;;;;4.90;2.15;;;3.40;99.90;;;;;;5071454;28;20231;-74
2022/02/06 05:37:18;;;;;;;3.10;1.40;;;3.40;99.90;;;;;;5072020;28;20204;-74
2022/02/06 05:39:47;;;;;;;3.63;2.13;;;3.40;99.90;;;;;;5071906;28;20227;-74
2022/02/06 05:42:13;;;;;;;6.68;1.80;;;3.40;99.90;;;;;;5071475;28;20211;-74
2022/02/06 05:44:42;;;;;;;1.85;1.50;;;3.50;99.90;;;;;;5073722;28;20197;-73
2022/02/06 05:47:08;;;;;;;6.13;4.68;;;3.50;99.90;;;;;;5076896;28;20203;-74
2022/02/06 05:49:35;;;;;;;5.45;1.52;;;3.50;99.90;;;;;;5076414;28;20207;-72
2022/02/06 05:52:02;;;;;;;3.63;1.75;;;3.50;99.90;;;;;;5077929;28;20205;-74
2022/02/06 05:54:29;;;;;;;4.05;2.00;;;3.50;99.90;;;;;;5076778;28;20220;-74
2022/02/06 05:56:57;;;;;;;3.15;2.05;;;3.50;99.90;;;;;;5077188;28;20224;-74
2022/02/06 05:59:24;;;;;;;1.90;1.65;;;3.50;99.90;;;;;;5077472;28;20211;-74
2022/02/06 06:01:51;;;;;;;3.75;2.25;;;3.50;99.90;;;;;;5073373;28;20208;-75
2022/02/06 06:04:18;;;;;;;3.78;2.17;;;3.50;99.90;;;;;;5070982;28;20204;-74
2022/02/06 06:06:44;;;;;;;2.97;1.95;;;3.50;99.90;;;;;;5063146;28;20228;-73
2022/02/06 06:09:11;;;;;;;1.90;1.35;;;3.50;99.90;;;;;;5060978;28;20193;-74
2022/02/06 06:11:38;;;;;;;2.50;1.65;;;3.50;99.90;;;;;;5058741;28;20193;-74
2022/02/06 06:14:06;;;;;;;6.18;1.88;;;3.50;99.90;;;;;;5059766;28;20216;-74
2022/02/06 06:16:34;;;;;;;4.57;1.92;;;3.50;99.90;;;;;;5060521;28;20216;-74
2022/02/06 06:19:01;;;;;;;3.70;1.95;;;3.50;99.90;;;;;;5061632;28;20200;-73
2022/02/06 06:21:30;;;;;;;4.30;1.70;;;3.50;99.90;;;;;;5060544;28;20193;-75
2022/02/06 06:23:59;;;;;;;8.88;1.90;;;3.50;99.90;;;;;;5058322;28;20193;-75
2022/02/06 06:26:27;;;;;;;3.65;1.75;;;3.50;99.90;;;;;;5060048;28;20307;-73
2022/02/06 06:28:54;;;;;;;3.17;1.80;;;3.50;99.90;;;;;;5060633;28;20641;-73
2022/02/06 06:31:22;;;;;;;3.47;1.80;;;3.50;99.90;;;;;;5061410;28;20623;-74
2022/02/06 06:33:49;;;;;;;4.35;1.98;;;3.60;99.90;;;;;;5059139;28;20220;-74
2022/02/06 06:36:15;;;;;;;2.97;1.75;;;3.50;99.90;;;;;;5058227;28;20229;-74
2022/02/06 06:38:42;;;;;;;3.80;1.80;;;3.50;99.90;;;;;;5060988;28;20918;-75
2022/02/06 06:41:09;;;;;;;4.32;1.90;;;3.60;99.90;;;;;;5059332;28;20196;-74
2022/02/06 06:43:36;;;;;;;5.05;1.70;;;3.60;99.90;;;;;;5059448;28;20204;-74
2022/02/06 06:46:02;;;;;;;3.45;1.75;;;3.60;99.90;;;;;;5058872;28;20221;-74
2022/02/06 06:48:30;;;;;;;14.02;2.00;;;3.60;99.90;;;;;;5059102;28;20203;-73
2022/02/06 06:50:57;;;;;;;1.98;1.55;;;3.60;99.90;;;;;;5060356;28;20567;-73
2022/02/06 06:53:24;;;;;;;5.63;1.60;;;3.60;99.90;;;;;;5058260;28;20201;-72
2022/02/06 06:55:56;;;;;;;5.30;1.98;;;3.70;99.90;;;;;;5058657;28;20227;-73
2022/02/06 06:58:28;;;;;;;3.35;1.50;;;3.80;99.90;;;;;;5060787;28;20567;-73
2022/02/06 07:00:57;;;;;;;5.15;1.70;;;3.80;99.90;;;;;;5058183;28;20204;-72
2022/02/06 07:03:25;;;;;;;4.43;1.80;;;3.80;99.90;;;;;;5059760;28;20200;-73
2022/02/06 07:05:53;;;;;;;2.40;1.92;;;3.80;99.90;;;;;;5059437;28;20221;-73
2022/02/06 07:08:20;;;;;;;5.15;2.20;;;3.80;99.90;;;;;;5057984;28;20224;-73
2022/02/06 07:10:47;;;;;;;4.75;2.30;;;3.80;99.90;;;;;;5059075;28;20196;-72
2022/02/06 07:13:14;;;;;;;4.45;2.70;;;3.80;99.90;;;;;;5059168;28;20204;-73
2022/02/06 07:15:41;;;;;;;2.65;1.55;;;3.80;99.90;;;;;;5060094;28;20805;-73
2022/02/06 07:18:08;;;;;;;4.63;1.73;;;3.90;99.90;;;;;;5058959;28;20189;-72
2022/02/06 07:20:36;;;;;;;1.85;1.52;;;4.00;99.90;;;;;;5057950;28;20192;-73
2022/02/06 07:23:08;;;;;;;3.67;1.80;;;4.00;99.90;;;;;;5059483;28;20203;-72
2022/02/06 07:25:36;;;;;;;2.65;1.60;;;4.10;99.90;;;;;;5059624;28;20771;-72
2022/02/06 07:28:03;;;;;;;4.75;1.60;;;4.10;99.90;;;;;;5060110;28;20203;-72
2022/02/06 07:30:30;;;;;;;4.47;1.83;;;4.10;99.90;;;;;;5052417;28;20201;-75
2022/02/06 07:32:57;;;;;;;3.45;1.55;;;4.10;99.90;;;;;;5049571;28;20205;-75
2022/02/06 07:35:23;;;;;;;4.47;1.75;;;4.20;99.90;;;;;;5049196;28;20225;-74
2022/02/06 07:37:55;;;;;;;3.90;2.05;;;4.10;99.90;;;;;;5049133;28;20201;-75
2022/02/06 07:40:23;;;;;;;2.92;1.60;;;4.20;99.90;;;;;;5049987;28;20216;-75
2022/02/06 07:42:50;;;;;;;5.45;1.80;;;4.20;99.90;;;;;;5049467;28;20201;-75
2022/02/06 07:45:17;;;;;;;3.35;1.50;;;4.20;99.90;;;;;;5049913;28;20220;-74
2022/02/06 07:47:45;;;;;;;4.60;2.10;;;4.30;99.90;;;;;;5050908;28;20583;-73
2022/02/06 07:50:13;;;;;;;4.28;1.98;;;4.30;99.90;;;;;;5050381;28;20271;-73
2022/02/06 07:52:40;;;;;;;7.68;1.80;;;4.40;99.90;;;;;;5050758;28;20205;-73
2022/02/06 07:55:08;;;;;;;4.50;2.20;;;4.40;99.90;;;;;;5050436;28;20233;-74
2022/02/06 07:57:38;;;;;;;5.90;1.70;;;4.40;99.90;;;;;;5050770;28;20201;-74
2022/02/06 08:00:07;;;;;;;4.35;2.35;;;4.50;99.90;;;;;;5051233;28;20314;-74
2022/02/06 08:02:34;;;;;;;5.40;1.70;;;4.60;99.90;;;;;;5050164;28;20696;-73
2022/02/06 08:05:02;;;;;;;4.30;1.65;;;4.60;99.90;;;;;;5050766;28;20197;-74
2022/02/06 08:07:29;;;;;;;5.00;1.88;;;4.70;99.90;;;;;;5050426;28;20213;-74
2022/02/06 08:09:57;;;;;;;3.28;1.70;;;4.80;99.90;;;;;;5051962;28;20212;-73
2022/02/06 08:12:28;;;;;;;2.63;1.95;;;4.90;99.90;;;;;;5054149;28;20231;-75
2022/02/06 08:15:00;;;;;;;3.67;1.88;;;4.90;99.90;;;;;;5054823;28;20316;-75
2022/02/06 08:17:28;;;;;;;2.78;1.48;;;4.90;99.90;;;;;;5052371;28;20288;-75
2022/02/06 08:19:55;;;;;;;3.45;1.85;;;4.90;99.90;;;;;;5053132;28;20205;-76
2022/02/06 08:22:23;;;;;;;2.25;1.55;;;4.90;99.90;;;;;;5051909;28;20566;-76
2022/02/06 08:24:50;;;;;;;6.05;1.67;;;5.00;99.90;;;;;;5053024;28;20197;-77
2022/02/06 08:27:18;;;;;;;6.88;1.88;;;5.10;99.90;;;;;;5052514;28;20201;-77
2022/02/06 08:29:46;;;;;;;4.85;1.85;;;5.20;99.90;;;;;;5052312;28;20295;-76
2022/02/06 08:32:15;;;;;;;6.95;2.10;;;5.10;99.90;;;;;;5052093;28;20205;-76
2022/02/06 08:34:42;;;;;;;5.00;2.00;;;5.10;99.90;;;;;;5052421;28;20221;-76
2022/02/06 08:37:10;;;;;;;7.00;1.55;;;5.20;99.90;;;;;;5053584;28;20209;-76
2022/02/06 08:39:39;;;;;;;4.68;1.60;;;5.30;99.90;;;;;;5068697;28;20231;-75
2022/02/06 08:42:09;;;;;;;5.47;2.47;;;5.50;99.90;;;;;;5071083;28;20226;-75
2022/02/06 08:44:36;;;;;;;3.33;1.83;;;6.30;99.90;;;;;;5073229;28;20291;-75
2022/02/06 08:47:04;;;;;;;3.80;1.90;;;7.00;99.90;;;;;;5073413;28;20227;-75
2022/02/06 08:49:32;;;;;;;2.58;1.60;;;7.80;99.90;;;;;;5073349;28;20573;-74
2022/02/06 08:51:59;;;;;;;2.90;1.50;;;9.00;99.90;;;;;;5073127;28;20200;-75
2022/02/06 08:54:29;;;;;;;3.92;1.38;;;10.10;98.80;;;;;;5072571;28;20211;-76
2022/02/06 08:57:01;;;;;;;6.40;1.80;;;10.90;97.50;;;;;;5073268;28;20845;-76
2022/02/06 08:59:30;;;;;;;4.35;2.25;;;10.10;97.70;;;;;;5073399;28;20209;-75
2022/02/06 09:01:57;;;;;;;2.38;1.63;;;8.90;99.30;;;;;;5072020;28;20610;-73
2022/02/06 09:04:24;;;;;;;5.50;1.90;;;8.20;99.90;;;;;;5071768;28;20577;-73
2022/02/06 09:06:54;;;;;;;2.13;1.50;;;7.50;99.90;;;;;;5072533;28;20303;-75
2022/02/06 09:09:21;;;;;;;5.85;1.88;;;7.10;99.90;;;;;;5071585;28;20959;-75
2022/02/06 09:11:47;;;;;;;2.17;1.50;;;6.70;99.90;;;;;;5075587;28;20536;-75
2022/02/06 09:14:17;;;;;;;6.13;2.10;;;6.60;99.90;;;;;;5075596;28;20223;-75
2022/02/06 09:16:44;;;;;;;6.15;1.80;;;6.40;99.90;;;;;;5076990;28;20220;-74
2022/02/06 09:19:12;;;;;;;3.20;1.60;;;6.10;99.90;;;;;;5074294;28;20200;-75
2022/02/06 09:21:39;;;;;;;5.95;2.28;;;5.90;99.90;;;;;;5072407;28;20208;-76
2022/02/06 09:24:07;;;;;;;3.40;1.58;;;5.80;99.90;;;;;;5071680;28;20196;-76
2022/02/06 09:26:35;;;;;;;3.15;1.80;;;5.70;99.90;;;;;;5071670;28;20216;-73
2022/02/06 09:29:02;;;;;;;3.03;1.60;;;5.70;99.90;;;;;;5072052;28;20211;-75
2022/02/06 09:31:29;;;;;;;4.43;2.05;;;5.60;99.90;;;;;;5071394;28;20207;-75
2022/02/06 09:36:22;;;;;;;5.72;1.85;;;5.50;99.90;;;;;;5071216;28;20231;-76
2022/02/06 09:38:49;;;;;;;2.83;1.50;;;5.50;99.90;;;;;;5071224;28;20302;-76
2022/02/06 09:41:19;;;;;;;2.40;1.40;;;5.50;99.90;;;;;;5071356;28;20228;-76
2022/02/06 09:43:46;;;;;;;3.40;1.67;;;5.50;99.90;;;;;;5071144;28;20246;-76
2022/02/06 09:46:15;;;;;;;3.05;1.50;;;5.60;99.90;;;;;;5070679;28;20592;-76
2022/02/06 09:48:43;;;;;;;2.03;1.30;;;5.60;99.90;;;;;;5071892;28;20196;-75
2022/02/06 09:51:11;;;;;;;3.28;1.77;;;5.60;99.90;;;;;;5071664;28;20204;-74
2022/02/06 09:53:39;;;;;;;3.72;1.10;;;5.70;99.90;;;;;;5070616;28;20666;-76
2022/02/06 09:56:11;;;;;;;3.90;1.73;;;5.70;99.90;;;;;;5071161;28;20278;-75
2022/02/06 10:01:22;;;;;;;2.38;1.35;;;5.60;99.90;;;;;;5067504;28;20232;-76
2022/02/06 10:03:51;;;;;;;4.07;1.70;;;5.60;99.90;;;;;;5070633;28;20197;-75
2022/02/06 10:06:22;;;;;;;5.07;2.13;;;5.60;99.90;;;;;;5070504;28;20217;-76
2022/02/06 10:08:56;;;;;;;5.35;1.60;;;5.70;99.90;;;;;;5071826;28;20283;-74
2022/02/06 10:11:24;;;;;;;3.45;2.00;;;5.70;99.90;;;;;;5070939;28;20207;-75
2022/02/06 10:13:53;;;;;;;2.17;1.50;;;5.80;99.90;;;;;;5070801;28;20201;-75
2022/02/06 10:16:20;;;;;;;4.32;1.50;;;5.90;99.90;;;;;;5070410;28;20710;-76
2022/02/06 10:18:47;;;;;;;2.92;1.58;;;6.00;99.90;;;;;;5070941;28;20207;-73
2022/02/06 10:21:19;;;;;;;4.85;1.70;;;6.00;99.90;;;;;;5070247;28;20279;-77
2022/02/06 10:23:50;;;;;;;2.78;1.70;;;5.90;99.90;;;;;;5070463;28;20216;-77
2022/02/06 10:26:24;;;;;;;5.28;1.70;;;5.90;99.90;;;;;;5070608;28;20216;-76
2022/02/06 10:29:10;;;;;;;2.63;1.42;;;6.00;99.90;;;;;;5070461;28;20197;-76
2022/02/06 10:31:40;;;;;;;2.72;1.45;;;6.10;99.90;;;;;;5070507;28;20688;-75
2022/02/06 10:34:20;;;;;;;3.47;1.67;;;6.10;99.90;;;;;;5069106;28;20278;-76
2022/02/06 10:36:47;;;;;;;3.08;1.30;;;6.10;99.90;;;;;;5246889;22;20232;-70
2022/02/06 10:39:17;;;;;;;1.50;1.30;;;6.20;99.90;;;;;;5049543;28;20212;-70
2022/02/06 10:41:46;;;;;;;1.85;1.40;;;6.10;99.90;;;;;;5049903;28;20661;-70
2022/02/06 10:44:15;;;;;;;1.60;1.23;;;6.10;99.90;;;;;;5049281;28;20201;-69
2022/02/06 10:46:46;;;;;;;2.45;1.20;;;6.10;99.90;;;;;;5050174;28;20220;-73
2022/02/06 10:49:15;;;;;;;4.95;1.63;;;6.10;99.90;;;;;;5049988;28;20235;-72
2022/02/06 10:51:44;;;;;;;2.60;1.33;;;6.20;99.90;;;;;;5050297;28;20205;-72
2022/02/06 10:54:12;;;;;;;2.58;1.42;;;6.40;99.90;;;;;;5049370;28;20200;-71
2022/02/06 10:56:59;;;;;;;2.45;1.55;;;6.50;99.90;;;;;;5050100;28;20695;-72
2022/02/06 10:59:28;;;;;;;2.83;1.88;;;6.70;99.90;;;;;;5049947;28;20211;-71
2022/02/06 11:01:55;;;;;;;4.25;1.42;;;6.80;99.90;;;;;;5050148;28;20201;-72
2022/02/06 11:04:29;;;;;;;1.80;1.40;;;6.80;99.90;;;;;;5049585;28;20553;-72
2022/02/06 11:07:12;;;;;;;2.38;1.38;;;6.90;99.90;;;;;;5049931;28;20227;-72
2022/02/06 11:09:39;;;;;;;2.20;1.50;;;7.00;99.90;;;;;;5050253;28;20262;-72
2022/02/06 11:12:11;;;;;;;3.80;1.65;;;7.00;99.90;;;;;;5049481;28;20255;-71
2022/02/06 11:14:47;;;;;;;4.30;1.50;;;7.00;99.90;;;;;;5050028;28;20213;-72
2022/02/06 11:17:22;;;;;;;3.15;1.73;;;7.00;99.90;;;;;;5049769;28;20634;-72
2022/02/06 11:20:05;;;;;;;2.67;1.30;;;7.00;99.90;;;;;;5050001;28;20295;-72
2022/02/06 11:22:32;;;;;;;2.60;1.55;;;7.00;99.90;;;;;;5049061;28;20216;-72
2022/02/06 11:25:01;;;;;;;4.07;1.50;;;7.00;99.90;;;;;;5049863;28;20322;-72
2022/02/06 11:27:28;;;;;;;1.83;1.10;;;7.00;99.90;;;;;;5049797;28;20237;-73
2022/02/06 11:29:56;;;;;;;5.13;2.30;;;7.00;99.90;;;;;;5049617;28;20231;-73
2022/02/06 11:32:26;;;;;;;2.50;1.48;;;6.90;99.90;;;;;;5049020;28;20212;-72
2022/02/06 11:34:53;;;;;;;3.88;1.67;;;6.80;99.90;;;;;;5049863;28;20205;-72
2022/02/06 11:43:46;;;;;;;2.85;1.60;;;6.70;99.90;;;;;;5046982;28;20596;-73
2022/02/06 11:46:22;;;;;;;2.10;1.27;;;6.80;99.90;;;;;;5052941;28;20224;-72
2022/02/06 11:48:50;;;;;;;3.13;1.90;;;6.80;99.90;;;;;;5053707;28;20616;-72
2022/02/06 11:51:18;;;;;;;2.05;1.38;;;6.80;99.90;;;;;;5053084;28;20630;-72
2022/02/06 11:53:46;;;;;;;2.72;2.00;;;6.80;99.90;;;;;;5058081;28;20200;-73
2022/02/06 11:56:37;;;;;;;2.35;1.70;;;6.80;99.90;;;;;;5063504;28;20217;-71
2022/02/06 11:59:09;;;;;;;2.83;1.70;;;6.80;99.90;;;;;;5059593;28;20198;-71
2022/02/06 12:01:38;;;;;;;3.42;1.60;;;6.90;99.90;;;;;;5061564;28;20208;-71
2022/02/06 12:04:07;;;;;;;2.30;1.33;;;6.90;99.90;;;;;;5062177;28;20195;-71
2022/02/06 12:07:07;;;;;;;1.80;1.30;;;6.80;99.90;;;;;;5063102;28;20223;-71
2022/02/06 12:09:33;;;;;;;1.73;1.40;;;6.70;99.90;;;;;;5001328;28;20190;-70
2022/02/06 12:12:12;;;;;;;1.90;1.20;;;6.80;99.90;;;;;;4999809;28;20339;-70
2022/02/06 12:14:45;;;;;;;3.28;1.35;;;6.80;99.90;;;;;;5023642;28;20204;-71
2022/02/06 12:17:25;;;;;;;1.80;1.60;;;6.80;99.90;;;;;;5059835;28;20308;-70
2022/02/06 12:20:04;;;;;;;3.67;1.38;;;6.70;99.90;;;;;;5059339;28;20196;-73
2022/02/06 12:22:43;;;;;;;1.20;1.00;;;6.70;99.90;;;;;;5058604;28;20193;-73
2022/02/06 12:25:31;;;;;;;1.48;1.00;;;6.70;99.90;;;;;;5072037;28;20298;-72
2022/02/06 12:28:28;;;;;;;1.20;1.08;;;6.70;99.90;;;;;;5071547;28;20676;-72
2022/02/06 12:30:57;;;;;;;2.58;1.30;;;6.80;99.90;;;;;;5072125;28;20293;-73
2022/02/06 12:33:31;;;;;;;1.50;1.10;;;6.70;99.90;;;;;;5071541;28;20974;-72
2022/02/06 12:38:44;;;;;;;2.83;1.30;;;6.70;99.90;;;;;;5072423;28;20199;-71
2022/02/06 12:41:18;;;;;;;2.08;1.13;;;6.70;99.90;;;;;;5072203;28;20211;-71
2022/02/06 12:43:52;;;;;;;1.40;1.00;;;6.70;99.90;;;;;;5071265;28;20671;-71
2022/02/06 12:46:20;;;;;;;1.75;1.40;;;6.70;99.90;;;;;;5071880;28;20619;-72
2022/02/06 12:48:49;;;;;;;2.35;1.40;;;6.70;99.90;;;;;;5072177;28;20197;-71
2022/02/06 12:51:23;;;;;;;5.65;1.85;;;6.80;99.90;;;;;;5071487;28;20200;-71
2022/02/06 12:54:02;;;;;;;2.85;1.58;;;6.90;99.90;;;;;;5072683;28;20204;-71
2022/02/06 12:56:30;;;;;;;1.75;1.45;;;7.00;99.90;;;;;;5070819;28;20256;-72
2022/02/06 12:58:58;;;;;;;1.90;1.10;;;7.10;99.90;;;;;;5072122;28;20205;-72
2022/02/06 13:01:37;;;;;;;3.72;1.70;;;7.00;99.90;;;;;;5071646;28;20227;-72
2022/02/06 13:04:06;;;;;;;1.95;1.65;;;7.00;99.90;;;;;;5069325;28;20208;-72
2022/02/06 13:06:38;;;;;;;2.55;1.10;;;6.90;99.90;;;;;;5051616;28;20225;-73
2022/02/06 13:09:09;;;;;;;2.60;1.40;;;6.90;99.90;;;;;;5031129;28;20229;-70
2022/02/06 13:11:45;;;;;;;1.90;1.25;;;6.80;99.90;;;;;;5043284;28;20190;-72
2022/02/06 13:14:19;;;;;;;2.63;1.63;;;6.80;99.90;;;;;;5038383;28;20199;-71
2022/02/06 13:16:53;;;;;;;8.95;2.10;;;6.70;99.90;;;;;;5039676;28;20225;-72
2022/02/06 13:22:27;;;;;;;1.45;1.10;;;6.60;99.90;;;;;;5037265;28;20914;-71
2022/02/06 13:25:20;;;;;;;1.95;1.13;;;6.60;99.90;;;;;;5041168;28;20201;-74
2022/02/06 13:28:06;;;;;;;3.65;1.60;;;6.50;99.90;;;;;;5040191;28;20194;-71
2022/02/06 13:30:55;;;;;;;4.53;1.60;;;6.50;99.90;;;;;;5038375;28;20193;-71
2022/02/06 13:33:33;;;;;;;1.52;1.27;;;6.50;99.90;;;;;;5038527;28;20198;-71
2022/02/06 13:36:18;;;;;;;2.42;1.33;;;6.40;99.90;;;;;;5038226;28;20221;-73
2022/02/06 13:38:51;;;;;;;1.13;1.00;;;6.30;99.90;;;;;;5039735;28;20201;-72
2022/02/06 13:41:22;;;;;;;2.20;1.45;;;6.30;99.90;;;;;;5040091;28;20921;-72
2022/02/06 13:43:51;;;;;;;1.55;1.00;;;6.20;99.90;;;;;;5039973;28;20243;-72
2022/02/06 13:46:22;;;;;;;2.45;1.00;;;6.20;99.90;;;;;;5035258;28;20224;-72
2022/02/06 13:48:49;;;;;;;1.55;1.15;;;6.20;99.90;;;;;;5030797;28;20208;-72
2022/02/06 13:51:23;;;;;;;2.47;1.25;;;6.10;99.90;;;;;;5030622;28;20202;-71
2022/02/06 13:53:55;;;;;;;1.55;1.15;;;6.10;99.90;;;;;;5030500;28;20202;-72
2022/02/06 13:56:22;;;;;;;1.85;1.27;;;6.10;99.90;;;;;;5029268;28;20225;-71
2022/02/06 13:59:01;;;;;;;4.32;1.60;;;6.00;99.90;;;;;;5034884;28;20201;-72
2022/02/06 14:01:39;;;;;;;2.20;1.10;;;6.00;99.90;;;;;;5049525;28;20212;-71
2022/02/06 14:04:07;;;;;;;1.63;0.90;;;6.00;99.90;;;;;;5054963;28;20205;-71
2022/02/06 14:06:39;;;;;;;1.25;0.88;;;6.00;99.90;;;;;;5049902;28;20221;-72
2022/02/06 14:09:11;;;;;;;2.80;1.60;;;5.90;99.90;;;;;;5049046;28;20208;-71
2022/02/06 14:11:38;;;;;;;1.98;1.00;;;5.80;99.90;;;;;;5050042;28;20255;-72
2022/02/06 14:14:17;;;;;;;1.40;1.00;;;5.80;99.90;;;;;;5049602;28;20225;-71
2022/02/06 14:16:45;;;;;;;1.92;1.02;;;5.60;99.90;;;;;;5050016;28;20224;-72
2022/02/06 14:19:14;;;;;;;1.33;1.05;;;5.50;99.90;;;;;;5049341;28;20236;-71
2022/02/06 14:21:47;;;;;;;1.05;0.95;;;5.40;99.90;;;;;;5049814;28;20254;-72
2022/02/06 14:24:14;;;;;;;2.90;1.17;;;5.30;99.90;;;;;;5049484;28;20209;-71
2022/02/06 14:27:00;;;;;;;3.40;1.40;;;5.30;99.90;;;;;;5049756;28;20217;-71
2022/02/06 14:29:27;;;;;;;3.53;1.30;;;5.20;99.90;;;;;;5049160;28;20339;-72
2022/02/06 14:31:54;;;;;;;1.70;1.05;;;5.20;99.90;;;;;;5049948;28;20271;-72
2022/02/06 14:34:22;;;;;;;1.10;0.88;;;5.10;99.90;;;;;;5048612;28;20205;-70
2022/02/06 14:37:11;;;;;;;1.05;0.93;;;5.10;99.90;;;;;;5049710;28;20232;-72
2022/02/06 14:39:53;;;;;;;1.45;0.95;;;5.10;99.90;;;;;;5049706;28;20215;-73
2022/02/06 14:42:20;;;;;;;1.65;0.98;;;5.00;99.90;;;;;;5048721;28;20215;-72
2022/02/06 14:44:47;;;;;;;1.20;1.00;;;5.00;99.90;;;;;;5050066;28;20208;-73